createdAt,value
2017-08-30T00:00:02.437Z,90.9
2017-08-30T00:01:02.436Z,90.99
2017-08-30T00:02:02.437Z,91.38
2017-08-30T00:03:02.462Z,90.9
2017-08-30T00:04:02.115Z,91.47
2017-08-30T00:05:02.425Z,91.19
2017-08-30T00:06:02.108Z,91.28
2017-08-30T00:07:02.418Z,91.38
2017-08-30T00:08:02.418Z,91.19
2017-08-30T00:09:02.420Z,91.47
2017-08-30T00:10:02.413Z,91.57
2017-08-30T00:11:02.410Z,91.66
2017-08-30T00:12:02.096Z,91.19
2017-08-30T00:13:02.408Z,91.47
2017-08-30T00:14:02.401Z,91.66
2017-08-30T00:15:02.445Z,91.47
2017-08-30T00:16:02.086Z,91.38
2017-08-30T00:17:02.086Z,91.28
2017-08-30T00:18:02.083Z,91.47
2017-08-30T00:19:02.396Z,91.28
2017-08-30T00:20:02.080Z,91.38
2017-08-30T00:21:02.388Z,91.38
2017-08-30T00:22:02.386Z,91.47
2017-08-30T00:23:02.390Z,91.28
2017-08-30T00:24:02.069Z,91.57
2017-08-30T00:25:02.377Z,91.19
2017-08-30T00:26:02.066Z,91.28
2017-08-30T00:27:02.381Z,91.47
2017-08-30T00:28:02.060Z,91.28
2017-08-30T00:29:02.058Z,91.28
2017-08-30T00:30:02.373Z,91.28
2017-08-30T00:31:02.366Z,91.28
2017-08-30T00:32:02.049Z,91.28
2017-08-30T00:33:02.360Z,90.95
2017-08-30T00:34:02.457Z,91.52
2017-08-30T00:35:02.047Z,91.38
2017-08-30T00:36:02.043Z,91.52
2017-08-30T00:37:02.353Z,91.42
2017-08-30T00:38:02.039Z,91.42
2017-08-30T00:39:02.449Z,91.81
2017-08-30T00:40:02.033Z,91.91
2017-08-30T00:41:02.346Z,92
2017-08-30T00:42:02.029Z,91.91
2017-08-30T00:43:02.027Z,91.91
2017-08-30T00:44:02.339Z,91.72
2017-08-30T00:45:02.024Z,91.52
2017-08-30T00:46:02.121Z,91.62
2017-08-30T00:47:02.329Z,92
2017-08-30T00:48:02.120Z,91.81
2017-08-30T00:49:02.326Z,91.81
2017-08-30T00:50:02.009Z,91.91
2017-08-30T00:51:02.319Z,91.91
2017-08-30T00:52:02.316Z,92.29
2017-08-30T00:53:02.003Z,91.91
2017-08-30T00:54:02.000Z,92.68
2017-08-30T00:55:02.312Z,92.48
2017-08-30T00:56:02.306Z,92.68
2017-08-30T00:57:02.309Z,92.58
2017-08-30T00:58:02.303Z,92.39
2017-08-30T00:59:02.307Z,92.68
2017-08-30T01:00:02.299Z,92.58
2017-08-30T01:01:01.986Z,92.39
2017-08-30T01:02:01.983Z,92.1
2017-08-30T01:03:01.981Z,92.29
2017-08-30T01:04:01.979Z,92.58
2017-08-30T01:05:01.978Z,92.58
2017-08-30T01:06:02.387Z,92.68
2017-08-30T01:07:01.970Z,92.86
2017-08-30T01:08:01.969Z,92.96
2017-08-30T01:09:01.968Z,92.58
2017-08-30T01:10:01.967Z,92.96
2017-08-30T01:11:02.274Z,92.58
2017-08-30T01:12:01.962Z,92.68
2017-08-30T01:13:02.272Z,92.58
2017-08-30T01:14:01.957Z,92.68
2017-08-30T01:15:01.956Z,92
2017-08-30T01:16:02.264Z,92
2017-08-30T01:17:01.950Z,92.1
2017-08-30T01:18:01.949Z,92.1
2017-08-30T01:19:02.257Z,91.62
2017-08-30T01:20:01.945Z,91.91
2017-08-30T01:21:02.258Z,92.1
2017-08-30T01:22:01.939Z,92.1
2017-08-30T01:23:01.935Z,92.68
2017-08-30T01:24:01.933Z,92.58
2017-08-30T01:25:01.932Z,92.96
2017-08-30T01:26:02.028Z,92.68
2017-08-30T01:27:02.240Z,92.58
2017-08-30T01:28:02.237Z,92.77
2017-08-30T01:29:02.239Z,92.58
2017-08-30T01:30:01.921Z,92.68
2017-08-30T01:31:01.930Z,92.29
2017-08-30T01:32:01.916Z,92.68
2017-08-30T01:33:01.942Z,92.77
2017-08-30T01:34:02.011Z,92
2017-08-30T01:35:02.230Z,92.19
2017-08-30T01:36:02.217Z,92.19
2017-08-30T01:37:02.317Z,92
2017-08-30T01:38:01.901Z,91.86
2017-08-30T01:39:01.899Z,92.86
2017-08-30T01:40:01.895Z,92.68
2017-08-30T01:41:01.894Z,92.91
2017-08-30T01:42:02.202Z,92.29
2017-08-30T01:43:01.888Z,92.34
2017-08-30T01:44:01.885Z,92.63
2017-08-30T01:45:02.198Z,92.34
2017-08-30T01:46:02.194Z,92.54
2017-08-30T01:47:01.883Z,92.39
2017-08-30T01:48:02.190Z,92.72
2017-08-30T01:49:02.184Z,92.82
2017-08-30T01:50:02.184Z,92.63
2017-08-30T01:51:02.182Z,92.54
2017-08-30T01:52:02.179Z,92.72
2017-08-30T01:53:02.176Z,93.11
2017-08-30T01:54:02.176Z,93.3
2017-08-30T01:55:01.960Z,93.11
2017-08-30T01:56:01.857Z,93.01
2017-08-30T01:57:02.172Z,93.11
2017-08-30T01:58:02.164Z,93.21
2017-08-30T01:59:01.850Z,93.3
2017-08-30T02:00:01.848Z,93.3
2017-08-30T02:01:02.162Z,94.07
2017-08-30T02:02:01.848Z,94.07
2017-08-30T02:03:01.841Z,93.11
2017-08-30T02:04:01.838Z,93.11
2017-08-30T02:05:01.835Z,94.07
2017-08-30T02:06:01.836Z,93.4
2017-08-30T02:07:02.147Z,93.78
2017-08-30T02:08:01.827Z,93.78
2017-08-30T02:09:02.142Z,93.73
2017-08-30T02:10:02.134Z,93.78
2017-08-30T02:11:01.822Z,93.68
2017-08-30T02:12:01.817Z,93.78
2017-08-30T02:13:02.129Z,93.59
2017-08-30T02:14:02.131Z,93.54
2017-08-30T02:15:01.911Z,93.93
2017-08-30T02:16:01.807Z,93.93
2017-08-30T02:17:01.808Z,93.93
2017-08-30T02:18:02.125Z,93.44
2017-08-30T02:19:01.803Z,93.63
2017-08-30T02:20:02.113Z,93.73
2017-08-30T02:21:02.112Z,93.63
2017-08-30T02:22:01.796Z,93.54
2017-08-30T02:23:02.104Z,93.63
2017-08-30T02:24:01.791Z,93.83
2017-08-30T02:25:01.785Z,93.83
2017-08-30T02:26:02.195Z,93.35
2017-08-30T02:27:02.094Z,93.54
2017-08-30T02:28:01.780Z,93.63
2017-08-30T02:29:02.090Z,93.54
2017-08-30T02:30:02.090Z,93.97
2017-08-30T02:31:02.083Z,93.63
2017-08-30T02:32:01.771Z,94.02
2017-08-30T02:33:01.767Z,93.73
2017-08-30T02:34:01.766Z,93.59
2017-08-30T02:35:02.077Z,93.78
2017-08-30T02:36:01.759Z,93.78
2017-08-30T02:37:01.760Z,93.78
2017-08-30T02:38:02.068Z,93.73
2017-08-30T02:39:01.752Z,93.54
2017-08-30T02:40:02.063Z,93.44
2017-08-30T02:41:01.746Z,93.88
2017-08-30T02:42:02.055Z,93.54
2017-08-30T02:43:01.741Z,93.49
2017-08-30T02:44:01.844Z,93.54
2017-08-30T02:45:02.049Z,93.73
2017-08-30T02:46:02.047Z,93.93
2017-08-30T02:47:01.734Z,93.44
2017-08-30T02:48:02.047Z,93.54
2017-08-30T02:49:01.728Z,93.44
2017-08-30T02:50:02.039Z,93.54
2017-08-30T02:51:01.722Z,93.54
2017-08-30T02:52:02.032Z,93.83
2017-08-30T02:53:02.031Z,93.54
2017-08-30T02:54:01.718Z,93.73
2017-08-30T02:55:02.022Z,93.54
2017-08-30T02:56:02.020Z,93.54
2017-08-30T02:57:02.019Z,93.59
2017-08-30T02:58:02.018Z,93.44
2017-08-30T02:59:01.701Z,93.68
2017-08-30T03:00:01.700Z,94.07
2017-08-30T03:01:01.698Z,93.16
2017-08-30T03:02:02.009Z,93.11
2017-08-30T03:03:02.004Z,93.11
2017-08-30T03:04:01.695Z,93.3
2017-08-30T03:05:01.785Z,93.26
2017-08-30T03:06:02.097Z,94.07
2017-08-30T03:07:01.684Z,94.02
2017-08-30T03:08:01.680Z,93.78
2017-08-30T03:09:01.998Z,93.68
2017-08-30T03:10:01.676Z,93.78
2017-08-30T03:11:01.985Z,93.59
2017-08-30T03:12:01.983Z,93.68
2017-08-30T03:13:01.668Z,93.88
2017-08-30T03:14:01.976Z,93.78
2017-08-30T03:15:01.973Z,93.78
2017-08-30T03:16:01.659Z,93.88
2017-08-30T03:17:01.657Z,93.97
2017-08-30T03:18:01.968Z,93.78
2017-08-30T03:19:01.966Z,93.68
2017-08-30T03:20:01.959Z,93.97
2017-08-30T03:21:01.961Z,93.97
2017-08-30T03:22:01.647Z,93.59
2017-08-30T03:23:01.952Z,93.78
2017-08-30T03:24:01.738Z,94.17
2017-08-30T03:25:01.951Z,94.07
2017-08-30T03:26:01.636Z,93.97
2017-08-30T03:27:02.040Z,93.97
2017-08-30T03:28:01.628Z,93.93
2017-08-30T03:29:01.626Z,93.93
2017-08-30T03:30:01.626Z,93.63
2017-08-30T03:31:01.940Z,93.54
2017-08-30T03:32:01.617Z,93.93
2017-08-30T03:33:01.618Z,93.54
2017-08-30T03:34:01.614Z,93.44
2017-08-30T03:35:01.923Z,93.54
2017-08-30T03:36:01.608Z,93.73
2017-08-30T03:37:01.607Z,93.54
2017-08-30T03:38:01.916Z,93.63
2017-08-30T03:39:01.601Z,93.63
2017-08-30T03:40:01.598Z,93.44
2017-08-30T03:41:01.910Z,93.44
2017-08-30T03:42:01.908Z,93.54
2017-08-30T03:43:01.904Z,93.54
2017-08-30T03:44:01.588Z,93.73
2017-08-30T03:45:01.586Z,93.83
2017-08-30T03:46:01.896Z,93.54
2017-08-30T03:47:01.899Z,93.54
2017-08-30T03:48:01.579Z,93.44
2017-08-30T03:49:01.575Z,93.54
2017-08-30T03:50:01.885Z,93.54
2017-08-30T03:51:01.884Z,93.44
2017-08-30T03:52:01.878Z,93.54
2017-08-30T03:53:01.876Z,93.73
2017-08-30T03:54:01.562Z,93.83
2017-08-30T03:55:01.873Z,93.83
2017-08-30T03:56:01.558Z,93.63
2017-08-30T03:57:01.553Z,94.12
2017-08-30T03:58:01.551Z,93.69
2017-08-30T03:59:01.550Z,93.73
2017-08-30T04:00:01.857Z,93.49
2017-08-30T04:01:01.546Z,93.98
2017-08-30T04:02:01.543Z,93.69
2017-08-30T04:03:01.851Z,93.98
2017-08-30T04:04:01.848Z,93.88
2017-08-30T04:05:01.849Z,93.93
2017-08-30T04:06:01.845Z,94.02
2017-08-30T04:07:01.630Z,93.83
2017-08-30T04:08:01.525Z,94.02
2017-08-30T04:09:01.523Z,94.12
2017-08-30T04:10:01.831Z,94.02
2017-08-30T04:11:01.830Z,93.93
2017-08-30T04:12:01.828Z,94.02
2017-08-30T04:13:01.824Z,94.02
2017-08-30T04:14:01.510Z,94.12
2017-08-30T04:15:01.817Z,93.83
2017-08-30T04:16:01.818Z,93.93
2017-08-30T04:17:01.812Z,94.12
2017-08-30T04:18:01.501Z,94.12
2017-08-30T04:19:01.808Z,94.12
2017-08-30T04:20:01.595Z,93.83
2017-08-30T04:21:01.805Z,93.83
2017-08-30T04:22:01.800Z,93.83
2017-08-30T04:23:01.801Z,93.83
2017-08-30T04:24:01.485Z,94.21
2017-08-30T04:25:01.796Z,94.12
2017-08-30T04:26:01.794Z,93.83
2017-08-30T04:27:01.785Z,93.83
2017-08-30T04:28:01.576Z,93.93
2017-08-30T04:29:01.470Z,94.02
2017-08-30T04:30:01.882Z,94.02
2017-08-30T04:31:01.466Z,93.93
2017-08-30T04:32:01.777Z,93.93
2017-08-30T04:33:01.771Z,93.93
2017-08-30T04:34:01.769Z,94.02
2017-08-30T04:35:01.768Z,93.83
2017-08-30T04:36:01.761Z,94.21
2017-08-30T04:37:01.760Z,94.02
2017-08-30T04:38:01.445Z,93.35
2017-08-30T04:39:01.759Z,93.73
2017-08-30T04:40:01.442Z,93.73
2017-08-30T04:41:01.751Z,93.73
2017-08-30T04:42:01.434Z,93.54
2017-08-30T04:43:01.849Z,93.83
2017-08-30T04:44:01.428Z,93.93
2017-08-30T04:45:01.428Z,93.83
2017-08-30T04:46:01.742Z,93.44
2017-08-30T04:47:01.423Z,93.63
2017-08-30T04:48:01.420Z,93.73
2017-08-30T04:49:01.731Z,93.54
2017-08-30T04:50:01.414Z,93.93
2017-08-30T04:51:01.727Z,93.88
2017-08-30T04:52:01.410Z,93.97
2017-08-30T04:53:01.719Z,93.49
2017-08-30T04:54:01.405Z,93.49
2017-08-30T04:55:01.713Z,93.59
2017-08-30T04:56:01.714Z,93.3
2017-08-30T04:57:01.708Z,92.91
2017-08-30T04:58:01.705Z,93.11
2017-08-30T04:59:01.391Z,93.11
2017-08-30T05:00:01.702Z,93.11
2017-08-30T05:01:01.698Z,93.01
2017-08-30T05:02:01.697Z,93.01
2017-08-30T05:03:01.380Z,93.11
2017-08-30T05:04:01.703Z,92.72
2017-08-30T05:05:01.687Z,92.86
2017-08-30T05:06:01.683Z,92.58
2017-08-30T05:07:01.371Z,92.68
2017-08-30T05:08:01.373Z,92
2017-08-30T05:09:01.364Z,91.96
2017-08-30T05:10:01.362Z,91.66
2017-08-30T05:11:01.673Z,90.9
2017-08-30T05:12:01.356Z,90.52
2017-08-30T05:13:01.353Z,90.84
2017-08-30T05:14:01.351Z,89.79
2017-08-30T05:15:01.350Z,89.69
2017-08-30T05:16:01.348Z,89.5
2017-08-30T05:17:01.657Z,89.26
2017-08-30T05:18:01.346Z,88.49
2017-08-30T05:19:01.653Z,88.1
2017-08-30T05:20:01.337Z,87.57
2017-08-30T05:21:01.648Z,87.48
2017-08-30T05:22:01.644Z,86.52
2017-08-30T05:23:01.645Z,86.18
2017-08-30T05:24:01.329Z,85.6
2017-08-30T05:25:01.323Z,85.31
2017-08-30T05:26:01.635Z,84.87
2017-08-30T05:27:01.322Z,83.81
2017-08-30T05:28:01.321Z,83.47
2017-08-30T05:29:01.628Z,82.7
2017-08-30T05:30:01.315Z,82.26
2017-08-30T05:31:01.314Z,81.87
2017-08-30T05:32:01.620Z,81.01
2017-08-30T05:33:01.621Z,80.66
2017-08-30T05:34:01.621Z,79.98
2017-08-30T05:35:01.306Z,79.31
2017-08-30T05:36:01.302Z,78.73
2017-08-30T05:37:01.615Z,78.09
2017-08-30T05:38:01.613Z,77.13
2017-08-30T05:39:01.293Z,76.84
2017-08-30T05:40:01.294Z,76.68
2017-08-30T05:41:01.602Z,76.01
2017-08-30T05:42:01.604Z,74.89
2017-08-30T05:43:01.288Z,74.51
2017-08-30T05:44:01.285Z,73.63
2017-08-30T05:45:01.599Z,73.15
2017-08-30T05:46:01.285Z,72.8
2017-08-30T05:47:01.281Z,71.84
2017-08-30T05:48:01.690Z,71.36
2017-08-30T05:49:01.690Z,70.97
2017-08-30T05:50:01.274Z,69.81
2017-08-30T05:51:01.585Z,68.68
2017-08-30T05:52:01.583Z,69.17
2017-08-30T05:53:01.370Z,69.07
2017-08-30T05:54:01.583Z,69.46
2017-08-30T05:55:01.270Z,69.62
2017-08-30T05:56:01.578Z,69.9
2017-08-30T05:57:01.579Z,70.84
2017-08-30T05:58:01.573Z,71.51
2017-08-30T05:59:01.574Z,71.86
2017-08-30T06:00:01.263Z,72.5
2017-08-30T06:01:01.259Z,72.79
2017-08-30T06:02:01.262Z,72.83
2017-08-30T06:03:01.571Z,72.44
2017-08-30T06:04:01.568Z,72.15
2017-08-30T06:05:01.567Z,71.8
2017-08-30T06:06:01.354Z,71.7
2017-08-30T06:07:01.562Z,71.06
2017-08-30T06:08:01.566Z,69.46
2017-08-30T06:09:01.559Z,68.98
2017-08-30T06:10:01.562Z,67.94
2017-08-30T06:11:01.661Z,67.21
2017-08-30T06:12:01.563Z,65.98
2017-08-30T06:13:01.243Z,65.59
2017-08-30T06:14:01.559Z,65.69
2017-08-30T06:15:01.552Z,64.95
2017-08-30T06:16:01.552Z,64.56
2017-08-30T06:17:01.553Z,63.72
2017-08-30T06:18:01.550Z,63.43
2017-08-30T06:19:01.550Z,62.3
2017-08-30T06:20:01.550Z,62.4
2017-08-30T06:21:01.238Z,61.43
2017-08-30T06:22:01.238Z,61.04
2017-08-30T06:23:01.545Z,60.75
2017-08-30T06:24:01.545Z,60.07
2017-08-30T06:25:01.559Z,59.91
2017-08-30T06:26:01.232Z,58.94
2017-08-30T06:27:01.232Z,58.36
2017-08-30T06:28:01.235Z,58.36
2017-08-30T06:29:01.233Z,57.58
2017-08-30T06:30:01.541Z,57.03
2017-08-30T06:31:01.229Z,56.09
2017-08-30T06:32:01.228Z,55.5
2017-08-30T06:33:01.229Z,55.43
2017-08-30T06:34:01.541Z,55.41
2017-08-30T06:35:01.226Z,55.21
2017-08-30T06:36:01.229Z,55.5
2017-08-30T06:37:01.225Z,55.31
2017-08-30T06:38:01.537Z,55.33
2017-08-30T06:39:01.227Z,55.24
2017-08-30T06:40:01.224Z,54.85
2017-08-30T06:41:01.537Z,54.46
2017-08-30T06:42:01.323Z,54.85
2017-08-30T06:43:01.223Z,53.71
2017-08-30T06:44:01.534Z,53.83
2017-08-30T06:45:01.220Z,53.64
2017-08-30T06:46:01.534Z,53.54
2017-08-30T06:47:01.533Z,53.64
2017-08-30T06:48:01.220Z,53.25
2017-08-30T06:49:01.226Z,53.16
2017-08-30T06:50:01.530Z,53.54
2017-08-30T06:51:01.221Z,54.42
2017-08-30T06:52:01.217Z,53.61
2017-08-30T06:53:01.533Z,53.71
2017-08-30T06:54:01.534Z,53.22
2017-08-30T06:55:01.529Z,53.42
2017-08-30T06:56:01.527Z,53.32
2017-08-30T06:57:01.529Z,53.42
2017-08-30T06:58:01.214Z,53.52
2017-08-30T06:59:01.315Z,53.03
2017-08-30T07:00:01.214Z,52.74
2017-08-30T07:01:01.552Z,52.74
2017-08-30T07:02:01.523Z,52.37
2017-08-30T07:03:01.623Z,53.03
2017-08-30T07:04:01.412Z,52.74
2017-08-30T07:05:01.626Z,52.55
2017-08-30T07:06:01.525Z,52.45
2017-08-30T07:07:01.212Z,52.15
2017-08-30T07:08:01.209Z,52.35
2017-08-30T07:09:01.519Z,52.06
2017-08-30T07:10:01.517Z,52.06
2017-08-30T07:11:01.517Z,51.7
2017-08-30T07:12:01.518Z,51.4
2017-08-30T07:13:01.517Z,51.14
2017-08-30T07:14:01.520Z,50.46
2017-08-30T07:15:01.305Z,49.8
2017-08-30T07:16:01.515Z,48.73
2017-08-30T07:17:01.517Z,48.44
2017-08-30T07:18:01.205Z,48.27
2017-08-30T07:19:01.513Z,47.1
2017-08-30T07:20:01.517Z,47.2
2017-08-30T07:21:01.204Z,47
2017-08-30T07:22:01.204Z,46.98
2017-08-30T07:23:01.516Z,46.4
2017-08-30T07:24:01.515Z,46.42
2017-08-30T07:25:01.200Z,45.15
2017-08-30T07:26:01.610Z,44.79
2017-08-30T07:27:01.202Z,44.79
2017-08-30T07:28:01.201Z,44.81
2017-08-30T07:29:01.510Z,44.52
2017-08-30T07:30:01.513Z,44.13
2017-08-30T07:31:01.200Z,44.4
2017-08-30T07:32:01.208Z,44.59
2017-08-30T07:33:01.196Z,45.08
2017-08-30T07:34:01.197Z,44.57
2017-08-30T07:35:01.197Z,44.96
2017-08-30T07:36:01.505Z,45.25
2017-08-30T07:37:01.193Z,44.86
2017-08-30T07:38:01.505Z,45.06
2017-08-30T07:39:01.505Z,44.01
2017-08-30T07:40:01.191Z,44.1
2017-08-30T07:41:01.192Z,43.64
2017-08-30T07:42:01.199Z,43.15
2017-08-30T07:43:01.193Z,43.74
2017-08-30T07:44:01.512Z,44.42
2017-08-30T07:45:01.504Z,44.42
2017-08-30T07:46:01.188Z,44.32
2017-08-30T07:47:01.501Z,45.2
2017-08-30T07:48:01.497Z,45.08
2017-08-30T07:49:01.186Z,45.95
2017-08-30T07:50:01.493Z,46.71
2017-08-30T07:51:01.188Z,47.17
2017-08-30T07:52:01.183Z,48.03
2017-08-30T07:53:01.493Z,48.22
2017-08-30T07:54:01.492Z,48.32
2017-08-30T07:55:01.182Z,48.9
2017-08-30T07:56:01.181Z,48.8
2017-08-30T07:57:01.182Z,49.19
2017-08-30T07:58:01.590Z,49
2017-08-30T07:59:01.180Z,48.9
2017-08-30T08:00:01.177Z,48.44
2017-08-30T08:01:01.492Z,48.44
2017-08-30T08:02:01.487Z,47.1
2017-08-30T08:03:01.588Z,46.71
2017-08-30T08:04:01.588Z,46.34
2017-08-30T08:05:01.171Z,45.39
2017-08-30T08:06:01.175Z,45.22
2017-08-30T08:07:01.484Z,44.73
2017-08-30T08:08:01.486Z,44.17
2017-08-30T08:09:01.484Z,43.61
2017-08-30T08:10:01.478Z,43.41
2017-08-30T08:11:01.167Z,43.12
2017-08-30T08:12:01.501Z,42.63
2017-08-30T08:13:01.265Z,42.93
2017-08-30T08:14:01.480Z,42.73
2017-08-30T08:15:01.481Z,43.51
2017-08-30T08:16:01.162Z,44.07
2017-08-30T08:17:01.473Z,44.15
2017-08-30T08:18:01.160Z,45.12
2017-08-30T08:19:01.479Z,45.08
2017-08-30T08:20:01.157Z,45.08
2017-08-30T08:21:01.155Z,46.42
2017-08-30T08:22:01.160Z,46.59
2017-08-30T08:23:01.466Z,46.96
2017-08-30T08:24:01.466Z,47.74
2017-08-30T08:25:01.153Z,48.1
2017-08-30T08:26:01.255Z,48.3
2017-08-30T08:27:01.155Z,48.78
2017-08-30T08:28:01.151Z,49.73
2017-08-30T08:29:01.464Z,49.63
2017-08-30T08:30:01.249Z,50.12
2017-08-30T08:31:01.461Z,50.7
2017-08-30T08:32:01.145Z,51.35
2017-08-30T08:33:01.460Z,51.65
2017-08-30T08:34:01.144Z,51.93
2017-08-30T08:35:01.141Z,52.42
2017-08-30T08:36:01.459Z,52.72
2017-08-30T08:37:01.455Z,52.81
2017-08-30T08:38:01.456Z,52.91
2017-08-30T08:39:01.140Z,53.3
2017-08-30T08:40:01.449Z,53.3
2017-08-30T08:41:01.447Z,53.78
2017-08-30T08:42:01.446Z,53.66
2017-08-30T08:43:01.137Z,54.17
2017-08-30T08:44:01.137Z,54.46
2017-08-30T08:45:01.134Z,54.36
2017-08-30T08:46:01.137Z,54.94
2017-08-30T08:47:01.439Z,54.46
2017-08-30T08:48:01.129Z,54.75
2017-08-30T08:49:01.128Z,54.75
2017-08-30T08:50:01.129Z,54.07
2017-08-30T08:51:01.439Z,54.24
2017-08-30T08:52:01.437Z,53.56
2017-08-30T08:53:01.437Z,52.98
2017-08-30T08:54:01.433Z,53.08
2017-08-30T08:55:01.123Z,53.47
2017-08-30T08:56:01.119Z,53.37
2017-08-30T08:57:01.120Z,53.66
2017-08-30T08:58:01.433Z,54.14
2017-08-30T08:59:01.434Z,53.85
2017-08-30T09:00:01.116Z,53.75
2017-08-30T09:01:01.450Z,53.3
2017-08-30T09:02:01.122Z,54.07
2017-08-30T09:03:01.113Z,53.97
2017-08-30T09:04:01.114Z,54.17
2017-08-30T09:05:01.424Z,54.07
2017-08-30T09:06:01.112Z,54.46
2017-08-30T09:07:01.109Z,54.27
2017-08-30T09:08:01.419Z,53.69
2017-08-30T09:09:01.420Z,54.07
2017-08-30T09:10:01.421Z,54.27
2017-08-30T09:11:01.108Z,54.36
2017-08-30T09:12:01.105Z,54.07
2017-08-30T09:13:01.105Z,53.97
2017-08-30T09:14:01.515Z,54.36
2017-08-30T09:15:01.418Z,54.07
2017-08-30T09:16:01.102Z,54.07
2017-08-30T09:17:01.100Z,53.88
2017-08-30T09:18:01.099Z,53.78
2017-08-30T09:19:01.098Z,53.78
2017-08-30T09:20:01.098Z,53.37
2017-08-30T09:21:01.198Z,54.17
2017-08-30T09:22:01.407Z,53.78
2017-08-30T09:23:01.404Z,53.49
2017-08-30T09:24:01.092Z,53.78
2017-08-30T09:25:01.401Z,53.69
2017-08-30T09:26:01.091Z,53.59
2017-08-30T09:27:01.089Z,53.69
2017-08-30T09:28:01.401Z,53.3
2017-08-30T09:29:01.401Z,54.46
2017-08-30T09:30:01.084Z,54.07
2017-08-30T09:31:01.397Z,54.27
2017-08-30T09:32:01.084Z,54.46
2017-08-30T09:33:01.081Z,54.27
2017-08-30T09:34:01.392Z,54.27
2017-08-30T09:35:01.080Z,54.36
2017-08-30T09:36:01.388Z,54.27
2017-08-30T09:37:01.182Z,54.17
2017-08-30T09:38:01.076Z,54.07
2017-08-30T09:39:01.386Z,54.07
2017-08-30T09:40:01.386Z,54.05
2017-08-30T09:41:01.071Z,54.05
2017-08-30T09:42:01.076Z,54.05
2017-08-30T09:43:01.073Z,53.66
2017-08-30T09:44:01.382Z,53.75
2017-08-30T09:45:01.385Z,54.24
2017-08-30T09:46:01.381Z,54.14
2017-08-30T09:47:01.376Z,54.24
2017-08-30T09:48:01.377Z,54.14
2017-08-30T09:49:01.065Z,54.53
2017-08-30T09:50:01.375Z,54.46
2017-08-30T09:51:01.062Z,54.17
2017-08-30T09:52:01.060Z,54.07
2017-08-30T09:53:01.400Z,54.27
2017-08-30T09:54:01.057Z,54.07
2017-08-30T09:55:01.056Z,54.17
2017-08-30T09:56:01.054Z,54.27
2017-08-30T09:57:01.054Z,54.17
2017-08-30T09:58:01.364Z,54.27
2017-08-30T09:59:01.051Z,53.22
2017-08-30T10:00:01.375Z,53.42
2017-08-30T10:01:01.362Z,53.42
2017-08-30T10:02:01.362Z,53.03
2017-08-30T10:03:01.365Z,52.94
2017-08-30T10:04:01.047Z,53.32
2017-08-30T10:05:01.359Z,53.32
2017-08-30T10:06:01.044Z,53.32
2017-08-30T10:07:01.353Z,53.61
2017-08-30T10:08:01.350Z,53.61
2017-08-30T10:09:01.379Z,53.42
2017-08-30T10:10:01.040Z,52.94
2017-08-30T10:11:01.354Z,52.84
2017-08-30T10:12:01.036Z,52.55
2017-08-30T10:13:01.449Z,52.94
2017-08-30T10:14:01.345Z,52.35
2017-08-30T10:15:01.344Z,52.35
2017-08-30T10:16:01.348Z,52.64
2017-08-30T10:17:01.339Z,52.15
2017-08-30T10:18:01.338Z,52.35
2017-08-30T10:19:01.441Z,53.03
2017-08-30T10:20:01.338Z,52.25
2017-08-30T10:21:01.339Z,52.55
2017-08-30T10:22:01.339Z,52.94
2017-08-30T10:23:01.025Z,52.55
2017-08-30T10:24:01.026Z,53.42
2017-08-30T10:25:01.021Z,53.32
2017-08-30T10:26:01.021Z,52.94
2017-08-30T10:27:01.333Z,53.45
2017-08-30T10:28:01.018Z,53.54
2017-08-30T10:29:01.329Z,53.83
2017-08-30T10:30:01.329Z,53.83
2017-08-30T10:31:01.328Z,53.64
2017-08-30T10:32:01.326Z,54.13
2017-08-30T10:33:01.014Z,53.74
2017-08-30T10:34:01.011Z,54.32
2017-08-30T10:35:01.325Z,54.32
2017-08-30T10:36:01.009Z,54.32
2017-08-30T10:37:01.007Z,54.32
2017-08-30T10:38:01.321Z,54.52
2017-08-30T10:39:01.005Z,53.83
2017-08-30T10:40:01.318Z,53.35
2017-08-30T10:41:01.416Z,53.35
2017-08-30T10:42:01.349Z,53.35
2017-08-30T10:43:01.313Z,53.47
2017-08-30T10:44:01.311Z,52.98
2017-08-30T10:45:01.000Z,53.08
2017-08-30T10:46:01.098Z,52.89
2017-08-30T10:47:01.312Z,52.5
2017-08-30T10:48:01.308Z,52.4
2017-08-30T10:49:01.308Z,52.04
2017-08-30T10:50:00.994Z,52.43
2017-08-30T10:51:00.994Z,51.45
2017-08-30T10:52:01.308Z,51.17
2017-08-30T10:53:00.990Z,50.68
2017-08-30T10:54:01.401Z,50.48
2017-08-30T10:55:00.988Z,50.51
2017-08-30T10:56:00.989Z,50.41
2017-08-30T10:57:01.305Z,50.21
2017-08-30T10:58:00.984Z,50.02
2017-08-30T10:59:00.986Z,49.83
2017-08-30T11:00:01.303Z,49.73
2017-08-30T11:01:01.293Z,49.9
2017-08-30T11:02:01.294Z,49.15
2017-08-30T11:03:00.983Z,49.15
2017-08-30T11:04:00.981Z,49.02
2017-08-30T11:05:01.295Z,49.32
2017-08-30T11:06:00.980Z,49.22
2017-08-30T11:07:01.293Z,49.8
2017-08-30T11:08:00.978Z,49.54
2017-08-30T11:09:00.979Z,49.8
2017-08-30T11:10:00.978Z,49.71
2017-08-30T11:11:00.976Z,49.8
2017-08-30T11:12:01.285Z,50.12
2017-08-30T11:13:00.973Z,49.71
2017-08-30T11:14:00.973Z,49.83
2017-08-30T11:15:00.971Z,49.73
2017-08-30T11:16:01.282Z,49.63
2017-08-30T11:17:01.281Z,49.83
2017-08-30T11:18:00.972Z,49.76
2017-08-30T11:19:00.969Z,49.76
2017-08-30T11:20:01.377Z,49.07
2017-08-30T11:21:01.276Z,48.97
2017-08-30T11:22:00.964Z,48.88
2017-08-30T11:23:01.279Z,48.58
2017-08-30T11:24:00.974Z,48.49
2017-08-30T11:25:00.971Z,47.9
2017-08-30T11:26:01.290Z,48.1
2017-08-30T11:27:00.971Z,48.29
2017-08-30T11:28:01.289Z,48.19
2017-08-30T11:29:00.967Z,48
2017-08-30T11:30:01.278Z,48.39
2017-08-30T11:31:01.279Z,48.58
2017-08-30T11:32:01.065Z,48.39
2017-08-30T11:33:00.964Z,48.49
2017-08-30T11:34:01.275Z,48.19
2017-08-30T11:35:00.961Z,48.12
2017-08-30T11:36:01.377Z,47.9
2017-08-30T11:37:00.960Z,48.49
2017-08-30T11:38:01.275Z,48.68
2017-08-30T11:39:00.959Z,48.97
2017-08-30T11:40:01.270Z,49.07
2017-08-30T11:41:01.268Z,49.07
2017-08-30T11:42:01.271Z,49.37
2017-08-30T11:43:01.060Z,48.97
2017-08-30T11:44:00.955Z,48.97
2017-08-30T11:45:01.269Z,49.17
2017-08-30T11:46:01.268Z,48.88
2017-08-30T11:47:00.951Z,48.97
2017-08-30T11:48:01.264Z,49.07
2017-08-30T11:49:01.269Z,48.97
2017-08-30T11:50:01.267Z,49.17
2017-08-30T11:51:01.265Z,49.07
2017-08-30T11:52:00.947Z,49.46
2017-08-30T11:53:01.260Z,49.66
2017-08-30T11:54:01.360Z,49.95
2017-08-30T11:55:01.260Z,49.66
2017-08-30T11:56:01.256Z,50.34
2017-08-30T11:57:01.256Z,50.43
2017-08-30T11:58:01.256Z,51.12
2017-08-30T11:59:01.254Z,51.8
2017-08-30T12:00:00.943Z,52.87
2017-08-30T12:01:01.253Z,53.26
2017-08-30T12:02:01.354Z,53.75
2017-08-30T12:03:01.253Z,54.33
2017-08-30T12:04:01.253Z,54.13
2017-08-30T12:05:00.942Z,54.43
2017-08-30T12:06:00.938Z,54.82
2017-08-30T12:07:01.250Z,54.72
2017-08-30T12:08:00.935Z,55.01
2017-08-30T12:09:01.347Z,55.11
2017-08-30T12:10:00.934Z,55.5
2017-08-30T12:11:01.246Z,55.4
2017-08-30T12:12:01.244Z,55.21
2017-08-30T12:13:00.930Z,55.11
2017-08-30T12:14:00.931Z,55.11
2017-08-30T12:15:00.930Z,55.5
2017-08-30T12:16:01.247Z,55.4
2017-08-30T12:17:01.240Z,55.21
2017-08-30T12:18:00.923Z,54.82
2017-08-30T12:19:01.244Z,55.11
2017-08-30T12:20:01.239Z,55.21
2017-08-30T12:21:01.338Z,55.21
2017-08-30T12:22:00.921Z,55.01
2017-08-30T12:23:00.922Z,55.21
2017-08-30T12:24:01.233Z,54.91
2017-08-30T12:25:01.234Z,55.11
2017-08-30T12:26:00.920Z,54.91
2017-08-30T12:27:01.230Z,55.4
2017-08-30T12:28:01.230Z,55.69
2017-08-30T12:29:01.233Z,55.11
2017-08-30T12:30:00.918Z,55.4
2017-08-30T12:31:00.916Z,55.01
2017-08-30T12:32:01.224Z,55.01
2017-08-30T12:33:01.233Z,55.11
2017-08-30T12:34:01.224Z,54.72
2017-08-30T12:35:01.229Z,54.91
2017-08-30T12:36:01.220Z,54.36
2017-08-30T12:37:01.227Z,54.62
2017-08-30T12:38:00.908Z,54.13
2017-08-30T12:39:01.219Z,53.75
2017-08-30T12:40:00.905Z,54.06
2017-08-30T12:41:01.218Z,54.36
2017-08-30T12:42:00.904Z,53.58
2017-08-30T12:43:01.213Z,53.97
2017-08-30T12:44:00.900Z,53.28
2017-08-30T12:45:01.215Z,53.36
2017-08-30T12:46:01.214Z,53.45
2017-08-30T12:47:01.214Z,53.45
2017-08-30T12:48:00.898Z,53.28
2017-08-30T12:49:01.212Z,53.28
2017-08-30T12:50:01.213Z,53.58
2017-08-30T12:51:01.209Z,53.19
2017-08-30T12:52:01.213Z,52.99
2017-08-30T12:53:01.208Z,53.58
2017-08-30T12:54:00.893Z,53.48
2017-08-30T12:55:01.204Z,53.09